createdAt,value
2023-05-19T00:02:03.553Z,4.20
2023-05-19T00:04:30.305Z,3.80
2023-05-19T00:06:59.766Z,4.05
2023-05-19T00:09:26.521Z,4.22
2023-05-19T00:11:53.214Z,4.00
2023-05-19T00:14:20.050Z,4.18
2023-05-19T00:16:46.895Z,3.75
2023-05-19T00:19:13.527Z,4.25
2023-05-19T00:21:40.170Z,3.92
2023-05-19T00:24:07.245Z,3.50
2023-05-19T00:26:34.077Z,3.75
2023-05-19T00:29:00.645Z,4.20
2023-05-19T00:31:27.344Z,4.80
2023-05-19T00:33:54.003Z,4.30
2023-05-19T00:36:20.576Z,4.25
2023-05-19T00:38:47.154Z,3.70
2023-05-19T00:41:13.916Z,3.90
2023-05-19T00:43:40.521Z,4.05
2023-05-19T00:46:07.177Z,4.32
2023-05-19T00:48:33.846Z,4.07
2023-05-19T00:51:01.104Z,3.65
2023-05-19T00:53:28.516Z,3.95
2023-05-19T00:55:55.173Z,4.15
2023-05-19T00:58:21.800Z,3.92
2023-05-19T01:00:48.565Z,4.18
2023-05-19T01:03:15.237Z,4.22
2023-05-19T01:05:42.531Z,4.15
2023-05-19T01:08:09.252Z,4.32
2023-05-19T01:10:36.167Z,3.80
2023-05-19T01:13:06.412Z,3.65
2023-05-19T01:16:05.672Z,4.82
2023-05-19T01:18:59.251Z,4.43
2023-05-19T01:21:25.731Z,4.90
2023-05-19T01:24:03.377Z,4.22
2023-05-19T01:26:43.522Z,4.07
2023-05-19T01:29:37.683Z,4.72
2023-05-19T01:32:06.624Z,4.32
2023-05-19T01:34:38.748Z,4.13
2023-05-19T01:37:06.341Z,3.95
2023-05-19T01:39:33.886Z,4.15
2023-05-19T01:42:02.171Z,3.85
2023-05-19T01:44:29.330Z,3.90
2023-05-19T01:46:56.239Z,4.32
2023-05-19T01:49:22.879Z,5.03
2023-05-19T01:51:49.476Z,4.65
2023-05-19T01:54:16.089Z,4.60
2023-05-19T01:56:54.804Z,4.03
2023-05-19T01:59:42.018Z,4.15
2023-05-19T02:02:22.496Z,4.40
2023-05-19T02:04:59.742Z,4.95
2023-05-19T02:07:52.189Z,4.38
2023-05-19T02:10:28.478Z,4.65
2023-05-19T02:13:00.947Z,4.45
2023-05-19T02:15:34.083Z,4.63
2023-05-19T02:18:01.429Z,4.22
2023-05-19T02:20:28.108Z,3.72
2023-05-19T02:22:54.647Z,4.38
2023-05-19T02:25:21.207Z,4.40
2023-05-19T02:27:47.716Z,3.95
2023-05-19T02:30:14.386Z,3.97
2023-05-19T02:32:41.015Z,4.15
2023-05-19T02:35:07.956Z,3.63
2023-05-19T02:37:34.503Z,4.95
2023-05-19T02:40:01.107Z,4.70
2023-05-19T02:42:27.770Z,3.70
2023-05-19T02:44:55.096Z,4.47
2023-05-19T02:47:21.797Z,4.15
2023-05-19T02:49:48.396Z,4.45
2023-05-19T02:52:14.948Z,4.03
2023-05-19T02:54:41.520Z,4.35
2023-05-19T02:57:08.142Z,3.90
2023-05-19T02:59:34.702Z,4.28
2023-05-19T03:02:02.220Z,3.97
2023-05-19T03:04:29.732Z,5.75
2023-05-19T03:06:56.705Z,4.43
2023-05-19T03:09:23.348Z,4.15
2023-05-19T03:11:49.878Z,4.20
2023-05-19T03:14:16.436Z,4.50
2023-05-19T03:16:43.099Z,4.88
2023-05-19T03:19:09.973Z,4.38
2023-05-19T03:21:36.616Z,5.03
2023-05-19T03:24:03.403Z,3.80
2023-05-19T03:26:29.971Z,3.90
2023-05-19T03:28:56.495Z,4.38
2023-05-19T03:31:23.038Z,3.47
2023-05-19T03:33:49.591Z,4.20
2023-05-19T03:36:16.164Z,3.97
2023-05-19T03:38:42.683Z,3.95
2023-05-19T03:41:09.207Z,4.10
2023-05-19T03:43:35.731Z,3.83
2023-05-19T03:46:02.375Z,3.83
2023-05-19T03:48:29.070Z,3.97
2023-05-19T03:50:55.615Z,3.80
2023-05-19T03:53:22.126Z,4.13
2023-05-19T03:55:48.824Z,4.63
2023-05-19T03:58:15.608Z,4.38
2023-05-19T04:00:42.604Z,3.55
2023-05-19T04:03:09.392Z,4.32
2023-05-19T04:05:36.183Z,4.38
2023-05-19T04:08:02.767Z,5.05
2023-05-19T04:10:29.430Z,4.90
2023-05-19T04:12:56.098Z,4.30
2023-05-19T04:15:22.689Z,4.28
2023-05-19T04:17:49.271Z,4.03
2023-05-19T04:20:15.831Z,4.22
2023-05-19T04:22:42.415Z,4.10
2023-05-19T04:25:09.110Z,4.07
2023-05-19T04:27:35.658Z,4.05
2023-05-19T04:30:02.882Z,4.65
2023-05-19T04:32:29.541Z,4.20
2023-05-19T04:34:56.444Z,5.15
2023-05-19T04:37:23.014Z,4.40
2023-05-19T04:39:49.584Z,4.78
2023-05-19T04:42:16.084Z,4.90
2023-05-19T04:44:42.612Z,4.45
2023-05-19T04:47:09.375Z,4.65
2023-05-19T04:49:36.619Z,5.03
2023-05-19T04:52:03.187Z,5.15
2023-05-19T04:54:29.703Z,4.50
2023-05-19T04:56:56.258Z,4.47
2023-05-19T04:59:22.790Z,5.22
2023-05-19T05:01:49.408Z,5.05
2023-05-19T05:04:15.974Z,5.00
2023-05-19T05:06:42.568Z,4.97
2023-05-19T05:09:09.130Z,4.47
2023-05-19T05:11:36.027Z,4.45
2023-05-19T05:14:02.767Z,4.75
2023-05-19T05:16:29.624Z,5.15
2023-05-19T05:18:56.603Z,4.07
2023-05-19T05:21:23.872Z,5.20
2023-05-19T05:23:51.773Z,4.97
2023-05-19T05:26:19.775Z,5.07
2023-05-19T05:28:46.399Z,4.85
2023-05-19T05:31:12.959Z,4.85
2023-05-19T05:33:39.708Z,4.72
2023-05-19T05:36:06.629Z,4.82
2023-05-19T05:38:33.319Z,5.60
2023-05-19T05:40:59.862Z,4.55
2023-05-19T05:43:26.374Z,4.82
2023-05-19T05:45:52.933Z,5.03
2023-05-19T05:48:19.842Z,4.38
2023-05-19T05:50:47.279Z,5.03
2023-05-19T05:53:18.516Z,4.57
2023-05-19T05:55:46.718Z,4.15
2023-05-19T05:58:13.392Z,4.43
2023-05-19T06:00:40.208Z,4.70
2023-05-19T06:03:06.852Z,4.72
2023-05-19T06:05:33.550Z,3.92
2023-05-19T06:08:00.191Z,4.78
2023-05-19T06:10:27.921Z,4.38
2023-05-19T06:12:54.584Z,4.90
2023-05-19T06:15:22.296Z,4.45
2023-05-19T06:17:48.967Z,3.83
2023-05-19T06:20:15.632Z,4.55
2023-05-19T06:22:42.312Z,4.47
2023-05-19T06:25:09.183Z,4.38
2023-05-19T06:27:35.876Z,3.92
2023-05-19T06:30:03.016Z,3.78
2023-05-19T06:32:29.653Z,4.40
2023-05-19T06:34:56.235Z,4.03
2023-05-19T06:37:23.365Z,4.05
2023-05-19T06:39:51.986Z,4.40
2023-05-19T06:42:19.538Z,3.90
2023-05-19T06:44:46.053Z,3.95
2023-05-19T06:47:12.644Z,4.20
2023-05-19T06:49:39.280Z,3.90
2023-05-19T06:52:05.959Z,4.03
2023-05-19T06:54:32.542Z,5.10
2023-05-19T06:56:59.085Z,4.43
2023-05-19T06:59:25.669Z,3.83
2023-05-19T07:01:52.296Z,3.92
2023-05-19T07:04:18.883Z,3.88
2023-05-19T07:06:45.473Z,4.30
2023-05-19T07:09:12.050Z,3.97
2023-05-19T07:11:38.949Z,3.90
2023-05-19T07:14:05.462Z,3.88
2023-05-19T07:16:32.069Z,4.00
2023-05-19T07:18:58.709Z,3.63
2023-05-19T07:21:25.371Z,4.20
2023-05-19T07:23:51.955Z,3.47
2023-05-19T07:26:18.533Z,3.50
2023-05-19T07:28:45.094Z,3.83
2023-05-19T07:31:11.677Z,3.85
2023-05-19T07:33:38.326Z,3.45
2023-05-19T07:36:04.992Z,3.33
2023-05-19T07:38:31.551Z,3.40
2023-05-19T07:40:58.102Z,3.35
2023-05-19T07:43:24.659Z,3.03
2023-05-19T07:45:51.302Z,3.75
2023-05-19T07:48:17.915Z,3.22
2023-05-19T07:50:44.562Z,3.13
2023-05-19T07:53:11.117Z,2.75
2023-05-19T07:55:37.636Z,3.13
2023-05-19T07:58:04.207Z,3.08
2023-05-19T08:00:30.976Z,2.50
2023-05-19T08:02:57.788Z,2.38
2023-05-19T08:05:24.820Z,2.95
2023-05-19T08:07:51.509Z,2.80
2023-05-19T08:10:18.285Z,3.10
2023-05-19T08:12:44.879Z,2.30
2023-05-19T08:15:11.404Z,2.75
2023-05-19T08:17:38.441Z,2.58
2023-05-19T08:20:05.935Z,2.67
2023-05-19T08:22:32.486Z,3.00
2023-05-19T08:24:58.979Z,2.58
2023-05-19T08:27:25.566Z,2.75
2023-05-19T08:29:52.111Z,2.67
2023-05-19T08:32:18.664Z,2.42
2023-05-19T08:34:45.276Z,2.67
2023-05-19T08:37:11.939Z,3.03
2023-05-19T08:39:38.554Z,2.97
2023-05-19T08:42:05.497Z,2.70
2023-05-19T08:44:32.272Z,3.42
2023-05-19T08:47:03.239Z,2.90
2023-05-19T08:49:35.263Z,2.60
2023-05-19T08:52:18.279Z,2.92
2023-05-19T08:55:04.343Z,2.97
2023-05-19T08:57:31.515Z,2.75
2023-05-19T08:59:59.014Z,2.95
2023-05-19T09:02:26.059Z,2.72
2023-05-19T09:04:53.595Z,2.70
2023-05-19T09:07:21.873Z,2.60
2023-05-19T09:09:49.101Z,3.28
2023-05-19T09:12:15.738Z,3.15
2023-05-19T09:14:42.308Z,3.03
2023-05-19T09:17:09.623Z,2.78
2023-05-19T09:19:42.308Z,2.70
2023-05-19T09:22:08.872Z,2.60
2023-05-19T09:24:35.500Z,2.70
2023-05-19T09:27:02.034Z,2.47
2023-05-19T09:29:28.645Z,2.60
2023-05-19T09:31:56.358Z,2.45
2023-05-19T09:34:23.084Z,2.30
2023-05-19T09:36:49.677Z,2.65
2023-05-19T09:39:17.003Z,2.50
2023-05-19T09:41:44.091Z,2.20
2023-05-19T09:44:21.517Z,2.25
2023-05-19T09:46:51.901Z,2.00
2023-05-19T09:49:25.529Z,2.28
2023-05-19T09:51:56.248Z,2.20
2023-05-19T09:54:24.466Z,2.45
2023-05-19T09:57:01.693Z,1.85
2023-05-19T09:59:32.323Z,2.47
2023-05-19T10:02:01.642Z,2.33
2023-05-19T10:04:29.594Z,2.15
2023-05-19T10:06:57.744Z,2.00
2023-05-19T10:09:25.517Z,2.20
2023-05-19T10:11:53.113Z,1.90
2023-05-19T10:14:24.069Z,2.15
2023-05-19T10:16:55.559Z,2.28
2023-05-19T10:19:27.868Z,2.00
2023-05-19T10:21:55.051Z,2.42
2023-05-19T10:24:21.792Z,2.10
2023-05-19T10:27:00.596Z,2.42
2023-05-19T10:29:30.408Z,2.10
2023-05-19T10:32:02.418Z,1.98
2023-05-19T10:35:06.449Z,2.42
2023-05-19T10:37:51.643Z,2.20
2023-05-19T10:40:29.153Z,2.38
2023-05-19T10:43:19.263Z,1.83
2023-05-19T10:45:51.475Z,1.85
2023-05-19T10:48:20.154Z,2.13
2023-05-19T10:50:47.248Z,2.30
2023-05-19T10:53:18.914Z,2.25
2023-05-19T10:55:55.662Z,2.05
2023-05-19T10:58:37.495Z,2.00
2023-05-19T11:01:08.038Z,1.50
2023-05-19T11:03:53.988Z,2.15
2023-05-19T11:06:27.374Z,1.85
2023-05-19T11:08:56.659Z,1.75
2023-05-19T11:13:56.477Z,1.80
2023-05-19T11:16:31.195Z,2.10
2023-05-19T11:19:00.834Z,1.83
2023-05-19T11:21:50.771Z,2.08
2023-05-19T11:24:37.000Z,1.73
2023-05-19T11:27:29.145Z,2.00
2023-05-19T11:29:57.078Z,1.90
2023-05-19T11:32:29.460Z,2.03
2023-05-19T11:34:57.241Z,1.85
2023-05-19T11:37:24.024Z,1.80
2023-05-19T11:39:51.650Z,1.65
2023-05-19T11:42:18.698Z,1.65
2023-05-19T11:44:45.694Z,2.13
2023-05-19T11:47:16.346Z,2.00
2023-05-19T11:49:48.632Z,1.92
2023-05-19T11:52:15.471Z,2.00
2023-05-19T11:54:42.038Z,1.90
2023-05-19T11:57:10.142Z,2.92
2023-05-19T11:59:38.170Z,1.95
2023-05-19T12:02:21.055Z,1.92
2023-05-19T12:04:51.447Z,2.00
2023-05-19T12:07:24.879Z,2.30
2023-05-19T12:09:54.675Z,1.92
2023-05-19T12:12:22.505Z,1.90
2023-05-19T12:14:51.567Z,2.40
2023-05-19T12:17:20.339Z,1.92
2023-05-19T12:19:48.616Z,2.05
2023-05-19T12:22:16.840Z,2.20
2023-05-19T12:24:44.653Z,1.90
2023-05-19T12:27:24.359Z,1.83
2023-05-19T12:29:51.642Z,1.95
2023-05-19T12:32:18.430Z,2.00
2023-05-19T12:34:45.088Z,1.85
2023-05-19T12:37:11.650Z,1.90
2023-05-19T12:39:39.488Z,1.58
2023-05-19T12:42:10.707Z,1.73
2023-05-19T12:44:51.324Z,2.20
2023-05-19T12:47:19.388Z,2.05
2023-05-19T12:50:04.511Z,1.98
2023-05-19T12:52:33.991Z,1.90
2023-05-19T12:55:05.517Z,1.70
2023-05-19T12:57:35.070Z,3.08
2023-05-19T13:00:08.895Z,1.95
2023-05-19T13:02:56.257Z,3.60
2023-05-19T13:05:23.176Z,2.53
2023-05-19T13:08:06.150Z,2.17
2023-05-19T13:10:34.643Z,9.18
2023-05-19T13:13:02.337Z,1.88
2023-05-19T13:15:31.353Z,6.82
2023-05-19T13:17:58.259Z,2.22
2023-05-19T13:20:27.622Z,2.78
2023-05-19T13:22:55.407Z,1.92
2023-05-19T13:25:22.034Z,1.85
2023-05-19T13:27:48.886Z,2.22
2023-05-19T13:30:15.994Z,2.20
2023-05-19T13:32:42.682Z,1.90
2023-05-19T13:35:10.225Z,1.80
2023-05-19T13:37:37.007Z,1.85
2023-05-19T13:40:03.720Z,2.20
2023-05-19T13:42:31.587Z,1.92
2023-05-19T13:44:58.169Z,1.90
2023-05-19T13:47:25.314Z,1.80
2023-05-19T13:49:52.521Z,2.17
2023-05-19T13:52:22.784Z,2.17
2023-05-19T13:54:49.861Z,2.75
2023-05-19T13:57:16.830Z,2.25
2023-05-19T14:00:00.260Z,1.95
2023-05-19T14:02:28.233Z,1.90
2023-05-19T14:04:54.975Z,2.22
2023-05-19T14:07:21.488Z,1.90
2023-05-19T14:09:48.007Z,2.20
2023-05-19T14:12:14.515Z,2.30
2023-05-19T14:14:41.153Z,2.00
2023-05-19T14:17:07.672Z,1.75
2023-05-19T14:19:34.232Z,1.70
2023-05-19T14:22:00.817Z,1.52
2023-05-19T14:24:27.376Z,2.15
2023-05-19T14:26:53.966Z,1.90
2023-05-19T14:29:20.529Z,1.60
2023-05-19T14:31:47.147Z,1.88
2023-05-19T14:34:13.781Z,1.90
2023-05-19T14:36:40.423Z,1.63
2023-05-19T14:39:07.003Z,1.88
2023-05-19T14:41:33.582Z,1.67
2023-05-19T14:44:00.180Z,2.20
2023-05-19T14:46:26.850Z,1.90
2023-05-19T14:48:53.450Z,1.65
2023-05-19T14:51:20.133Z,1.85
2023-05-19T14:53:46.744Z,1.80
2023-05-19T14:56:13.325Z,1.75
2023-05-19T14:58:39.882Z,1.60
2023-05-19T15:01:06.497Z,1.83
2023-05-19T15:03:33.043Z,1.65
2023-05-19T15:05:59.606Z,1.90
2023-05-19T15:08:26.288Z,1.67
2023-05-19T15:10:52.821Z,2.30
2023-05-19T15:13:19.424Z,1.90
2023-05-19T15:15:46.016Z,2.08
2023-05-19T15:18:12.701Z,1.65
2023-05-19T15:20:39.329Z,1.63
2023-05-19T15:23:05.964Z,1.92
2023-05-19T15:25:32.552Z,2.30
2023-05-19T15:27:59.105Z,2.28
2023-05-19T15:30:25.711Z,1.55
2023-05-19T15:32:52.314Z,2.00
2023-05-19T15:35:18.898Z,1.70
2023-05-19T15:37:45.436Z,1.80
2023-05-19T15:40:12.470Z,2.00
2023-05-19T15:42:39.015Z,1.90
2023-05-19T15:45:06.618Z,1.67
2023-05-19T15:47:33.230Z,1.80
2023-05-19T15:49:59.850Z,1.60
2023-05-19T15:52:26.442Z,1.67
2023-05-19T15:54:53.009Z,1.50
2023-05-19T15:57:19.590Z,1.63
2023-05-19T15:59:46.135Z,1.83
2023-05-19T16:02:12.924Z,2.13
2023-05-19T16:04:39.569Z,1.90
2023-05-19T16:07:06.103Z,1.60
2023-05-19T16:09:32.723Z,1.55
2023-05-19T16:11:59.324Z,1.70
2023-05-19T16:14:26.893Z,1.80
2023-05-19T16:16:54.158Z,1.83
2023-05-19T16:19:20.783Z,1.70
2023-05-19T16:21:47.591Z,1.80
2023-05-19T16:24:14.138Z,1.90
2023-05-19T16:26:40.658Z,1.70
2023-05-19T16:29:07.208Z,1.75
2023-05-19T16:31:33.822Z,1.80
2023-05-19T16:34:00.425Z,1.40
2023-05-19T16:36:27.004Z,2.00
2023-05-19T16:38:53.639Z,1.63
2023-05-19T16:41:20.212Z,1.73
2023-05-19T16:43:46.873Z,1.42
2023-05-19T16:46:13.436Z,1.40
2023-05-19T16:48:40.093Z,1.83
2023-05-19T16:51:06.650Z,1.58
2023-05-19T16:53:33.232Z,1.77
2023-05-19T16:55:59.798Z,1.70
2023-05-19T16:58:27.938Z,1.50
2023-05-19T17:00:55.449Z,1.73
2023-05-19T17:03:22.270Z,1.30
2023-05-19T17:05:48.905Z,1.35
2023-05-19T17:08:15.407Z,1.38
2023-05-19T17:10:41.984Z,1.77
2023-05-19T17:13:08.503Z,1.35
2023-05-19T17:15:35.010Z,1.50
2023-05-19T17:18:01.664Z,1.80
2023-05-19T17:20:28.300Z,1.52
2023-05-19T17:22:54.823Z,1.52
2023-05-19T17:25:21.335Z,1.63
2023-05-19T17:27:47.921Z,1.70
2023-05-19T17:30:14.496Z,1.85
2023-05-19T17:32:41.287Z,1.70
2023-05-19T17:35:08.191Z,1.42
2023-05-19T17:37:34.797Z,1.55
2023-05-19T17:40:01.387Z,1.20
2023-05-19T17:42:27.995Z,1.48
2023-05-19T17:44:54.646Z,1.60
2023-05-19T17:47:21.303Z,1.55
2023-05-19T17:49:47.885Z,1.67
2023-05-19T17:52:14.896Z,1.45
2023-05-19T17:54:41.547Z,1.95
2023-05-19T17:57:11.400Z,1.92
2023-05-19T17:59:38.331Z,1.50
2023-05-19T18:02:05.299Z,1.50
2023-05-19T18:04:32.352Z,1.70
2023-05-19T18:07:00.132Z,1.65
2023-05-19T18:09:29.140Z,1.58
2023-05-19T18:11:56.341Z,1.52
2023-05-19T18:14:23.016Z,1.83
2023-05-19T18:16:49.715Z,1.70
2023-05-19T18:19:16.429Z,1.52
2023-05-19T18:21:43.038Z,1.60
2023-05-19T18:24:09.587Z,1.50
2023-05-19T18:26:36.119Z,1.40
2023-05-19T18:29:02.714Z,1.58
2023-05-19T18:31:29.384Z,1.90
2023-05-19T18:33:55.901Z,1.70
2023-05-19T18:36:23.263Z,1.48
2023-05-19T18:38:50.257Z,1.65
2023-05-19T18:41:16.858Z,1.83
2023-05-19T18:43:43.439Z,2.03
2023-05-19T18:46:10.121Z,2.13
2023-05-19T18:48:36.717Z,1.90
2023-05-19T18:51:03.375Z,1.70
2023-05-19T18:53:33.363Z,1.80
2023-05-19T18:55:59.960Z,1.75
2023-05-19T18:58:26.556Z,1.42
2023-05-19T19:00:55.995Z,1.52
2023-05-19T19:03:22.614Z,2.00
2023-05-19T19:05:56.874Z,2.25
2023-05-19T19:08:23.678Z,1.98
2023-05-19T19:10:50.866Z,1.80
2023-05-19T19:13:20.709Z,1.70
2023-05-19T19:15:47.253Z,1.60
2023-05-19T19:18:13.842Z,1.80
2023-05-19T19:20:40.493Z,2.50
2023-05-19T19:23:07.024Z,2.03
2023-05-19T19:25:33.837Z,2.50
2023-05-19T19:28:00.466Z,2.25
2023-05-19T19:30:27.433Z,2.42
2023-05-19T19:32:54.171Z,1.77
2023-05-19T19:35:20.790Z,2.22
2023-05-19T19:37:47.524Z,2.67
2023-05-19T19:40:14.270Z,2.05
2023-05-19T19:42:40.877Z,2.17
2023-05-19T19:45:07.968Z,1.98
2023-05-19T19:47:34.701Z,1.98
2023-05-19T19:50:01.270Z,2.10
2023-05-19T19:52:27.877Z,1.92
2023-05-19T19:54:54.390Z,1.83
2023-05-19T19:57:21.016Z,1.52
2023-05-19T19:59:47.588Z,2.08
2023-05-19T20:02:14.200Z,2.03
2023-05-19T20:04:40.901Z,2.10
2023-05-19T20:07:07.526Z,1.80
2023-05-19T20:09:34.090Z,1.73
2023-05-19T20:12:00.689Z,1.52
2023-05-19T20:14:27.250Z,1.70
2023-05-19T20:16:53.798Z,1.88
2023-05-19T20:19:20.472Z,1.67
2023-05-19T20:21:47.045Z,1.75
2023-05-19T20:24:13.654Z,1.70
2023-05-19T20:26:40.181Z,2.10
2023-05-19T20:29:06.707Z,2.08
2023-05-19T20:31:33.236Z,2.00
2023-05-19T20:34:01.491Z,2.00
2023-05-19T20:36:28.514Z,1.85
2023-05-19T20:38:55.138Z,1.83
2023-05-19T20:41:21.726Z,2.03
2023-05-19T20:43:48.276Z,2.10
2023-05-19T20:46:14.821Z,1.92
2023-05-19T20:48:41.414Z,1.85
2023-05-19T20:51:08.037Z,2.15
2023-05-19T20:53:34.572Z,1.90
2023-05-19T20:56:01.129Z,2.22
2023-05-19T20:58:27.715Z,2.00
2023-05-19T21:00:54.864Z,1.70
2023-05-19T21:03:23.474Z,1.88
2023-05-19T21:05:50.458Z,1.77
2023-05-19T21:08:18.454Z,1.83
2023-05-19T21:10:45.322Z,1.67
2023-05-19T21:13:12.162Z,1.60
2023-05-19T21:15:38.771Z,2.28
2023-05-19T21:18:06.653Z,1.75
2023-05-19T21:20:33.330Z,1.80
2023-05-19T21:23:00.019Z,1.80
2023-05-19T21:25:26.672Z,1.50
2023-05-19T21:27:53.238Z,1.65
2023-05-19T21:30:19.832Z,1.33
2023-05-19T21:32:46.391Z,1.40
2023-05-19T21:35:13.024Z,1.52
2023-05-19T21:37:39.780Z,1.75
2023-05-19T21:40:07.464Z,2.00
2023-05-19T21:42:34.841Z,1.40
2023-05-19T21:45:02.080Z,1.50
2023-05-19T21:47:29.999Z,1.80
2023-05-19T21:49:56.684Z,1.80
2023-05-19T21:52:23.365Z,1.45
2023-05-19T21:54:49.927Z,1.70
2023-05-19T21:57:16.486Z,1.60
2023-05-19T21:59:43.180Z,1.42
2023-05-19T22:02:09.826Z,2.25
2023-05-19T22:04:36.510Z,1.40
2023-05-19T22:07:03.066Z,1.70
2023-05-19T22:09:29.707Z,2.00
2023-05-19T22:11:56.284Z,1.90
2023-05-19T22:14:24.324Z,1.58
2023-05-19T22:16:54.913Z,1.83
2023-05-19T22:19:21.569Z,1.60
2023-05-19T22:21:48.338Z,1.80
2023-05-19T22:24:15.884Z,1.70
2023-05-19T22:26:43.128Z,2.08
2023-05-19T22:29:10.352Z,1.52
2023-05-19T22:31:37.099Z,1.65
2023-05-19T22:34:03.703Z,1.58
2023-05-19T22:36:30.282Z,1.80
2023-05-19T22:38:56.796Z,1.50
2023-05-19T22:41:23.301Z,1.77
2023-05-19T22:43:49.863Z,2.03
2023-05-19T22:46:16.465Z,1.55
2023-05-19T22:48:43.103Z,2.15
2023-05-19T22:51:10.909Z,1.60
2023-05-19T22:53:43.683Z,1.92
2023-05-19T22:56:10.218Z,1.80
2023-05-19T22:58:36.732Z,1.70
2023-05-19T23:01:03.337Z,2.17
2023-05-19T23:03:33.211Z,1.90
2023-05-19T23:05:59.754Z,1.67
2023-05-19T23:08:26.583Z,1.52
2023-05-19T23:10:53.136Z,1.40
2023-05-19T23:13:19.721Z,1.58
2023-05-19T23:15:46.278Z,1.55
2023-05-19T23:18:12.912Z,1.65
2023-05-19T23:20:39.715Z,1.73
2023-05-19T23:23:06.246Z,1.63
2023-05-19T23:25:32.893Z,1.70
2023-05-19T23:28:01.156Z,1.90
2023-05-19T23:30:27.768Z,1.92
2023-05-19T23:32:54.686Z,1.70
2023-05-19T23:35:21.437Z,2.15
2023-05-19T23:37:48.452Z,2.05
2023-05-19T23:40:15.192Z,1.70
2023-05-19T23:42:41.805Z,1.80
2023-05-19T23:45:08.690Z,1.70
2023-05-19T23:47:35.321Z,1.90
2023-05-19T23:50:01.979Z,1.60
2023-05-19T23:52:28.485Z,1.88
2023-05-19T23:54:55.282Z,1.73
2023-05-19T23:57:22.085Z,2.28
2023-05-19T23:59:48.806Z,2.22
